sensor_id;sensor_type;location;lat;lon;timestamp;P1;durP1;ratioP1;P2;durP2;ratioP2
29414;SDS011;20303;48.302;11.914;2023-04-16T00:02:24;5.57;;;2.60;;
29414;SDS011;20303;48.302;11.914;2023-04-16T00:12:25;5.80;;;2.28;;
29414;SDS011;20303;48.302;11.914;2023-04-16T00:22:26;4.03;;;2.20;;
29414;SDS011;20303;48.302;11.914;2023-04-16T00:32:27;4.75;;;2.15;;
29414;SDS011;20303;48.302;11.914;2023-04-16T00:42:28;3.17;;;2.05;;
29414;SDS011;20303;48.302;11.914;2023-04-16T00:52:32;2.70;;;1.92;;
29414;SDS011;20303;48.302;11.914;2023-04-16T01:02:34;3.42;;;1.75;;
29414;SDS011;20303;48.302;11.914;2023-04-16T01:12:35;3.00;;;1.70;;
29414;SDS011;20303;48.302;11.914;2023-04-16T01:22:36;3.22;;;1.55;;
29414;SDS011;20303;48.302;11.914;2023-04-16T01:32:37;2.47;;;1.45;;
29414;SDS011;20303;48.302;11.914;2023-04-16T01:42:38;2.28;;;1.50;;
29414;SDS011;20303;48.302;11.914;2023-04-16T01:52:39;2.22;;;1.40;;
29414;SDS011;20303;48.302;11.914;2023-04-16T02:12:41;1.77;;;1.30;;
29414;SDS011;20303;48.302;11.914;2023-04-16T02:22:42;2.17;;;1.25;;
29414;SDS011;20303;48.302;11.914;2023-04-16T02:42:44;2.37;;;1.30;;
29414;SDS011;20303;48.302;11.914;2023-04-16T02:52:45;2.13;;;1.20;;
29414;SDS011;20303;48.302;11.914;2023-04-16T03:02:46;1.65;;;1.20;;
29414;SDS011;20303;48.302;11.914;2023-04-16T03:12:47;1.63;;;1.10;;
29414;SDS011;20303;48.302;11.914;2023-04-16T03:32:51;1.75;;;0.90;;
29414;SDS011;20303;48.302;11.914;2023-04-16T03:42:52;1.60;;;1.00;;
29414;SDS011;20303;48.302;11.914;2023-04-16T04:02:54;1.30;;;1.10;;
29414;SDS011;20303;48.302;11.914;2023-04-16T04:12:55;2.47;;;1.02;;
29414;SDS011;20303;48.302;11.914;2023-04-16T04:32:57;1.90;;;0.90;;
29414;SDS011;20303;48.302;11.914;2023-04-16T04:42:58;1.42;;;0.95;;
29414;SDS011;20303;48.302;11.914;2023-04-16T05:03:01;0.90;;;0.80;;
29414;SDS011;20303;48.302;11.914;2023-04-16T05:13:03;1.25;;;0.70;;
29414;SDS011;20303;48.302;11.914;2023-04-16T05:33:05;1.30;;;0.87;;
29414;SDS011;20303;48.302;11.914;2023-04-16T05:43:06;1.02;;;0.70;;
29414;SDS011;20303;48.302;11.914;2023-04-16T05:53:07;1.02;;;0.70;;
29414;SDS011;20303;48.302;11.914;2023-04-16T06:03:08;1.35;;;0.70;;
29414;SDS011;20303;48.302;11.914;2023-04-16T06:13:09;1.25;;;0.70;;
29414;SDS011;20303;48.302;11.914;2023-04-16T06:23:10;1.45;;;0.70;;
29414;SDS011;20303;48.302;11.914;2023-04-16T06:33:11;1.52;;;0.93;;
29414;SDS011;20303;48.302;11.914;2023-04-16T07:03:15;4.13;;;1.07;;
29414;SDS011;20303;48.302;11.914;2023-04-16T07:13:16;3.00;;;1.00;;
29414;SDS011;20303;48.302;11.914;2023-04-16T07:23:17;2.30;;;0.90;;
29414;SDS011;20303;48.302;11.914;2023-04-16T07:33:19;4.88;;;1.40;;
29414;SDS011;20303;48.302;11.914;2023-04-16T07:43:20;5.25;;;1.27;;
29414;SDS011;20303;48.302;11.914;2023-04-16T07:53:21;3.65;;;1.40;;
29414;SDS011;20303;48.302;11.914;2023-04-16T08:03:22;5.75;;;1.20;;
29414;SDS011;20303;48.302;11.914;2023-04-16T08:13:23;4.15;;;1.10;;
29414;SDS011;20303;48.302;11.914;2023-04-16T08:23:24;3.65;;;1.10;;
29414;SDS011;20303;48.302;11.914;2023-04-16T08:33:25;3.00;;;1.27;;
29414;SDS011;20303;48.302;11.914;2023-04-16T08:43:27;4.47;;;1.38;;
29414;SDS011;20303;48.302;11.914;2023-04-16T08:53:52;2.17;;;1.00;;
29414;SDS011;20303;48.302;11.914;2023-04-16T09:03:58;3.83;;;1.42;;
29414;SDS011;20303;48.302;11.914;2023-04-16T09:14:02;4.88;;;1.35;;
29414;SDS011;20303;48.302;11.914;2023-04-16T09:24:04;4.03;;;1.30;;
29414;SDS011;20303;48.302;11.914;2023-04-16T09:34:07;3.50;;;1.20;;
29414;SDS011;20303;48.302;11.914;2023-04-16T09:44:08;3.38;;;1.20;;
29414;SDS011;20303;48.302;11.914;2023-04-16T09:54:09;3.22;;;1.00;;
29414;SDS011;20303;48.302;11.914;2023-04-16T10:04:10;2.30;;;1.10;;
29414;SDS011;20303;48.302;11.914;2023-04-16T10:14:11;2.65;;;1.10;;
29414;SDS011;20303;48.302;11.914;2023-04-16T10:24:12;4.00;;;1.20;;
29414;SDS011;20303;48.302;11.914;2023-04-16T10:34:16;1.58;;;0.90;;
29414;SDS011;20303;48.302;11.914;2023-04-16T10:44:18;3.45;;;1.08;;
29414;SDS011;20303;48.302;11.914;2023-04-16T10:54:21;1.60;;;0.95;;
29414;SDS011;20303;48.302;11.914;2023-04-16T11:04:25;2.40;;;1.00;;
29414;SDS011;20303;48.302;11.914;2023-04-16T11:14:32;4.72;;;1.00;;
29414;SDS011;20303;48.302;11.914;2023-04-16T11:24:33;1.60;;;0.93;;
29414;SDS011;20303;48.302;11.914;2023-04-16T11:34:42;3.38;;;1.00;;
29414;SDS011;20303;48.302;11.914;2023-04-16T11:44:44;4.35;;;1.00;;
29414;SDS011;20303;48.302;11.914;2023-04-16T11:54:48;3.92;;;0.90;;
29414;SDS011;20303;48.302;11.914;2023-04-16T12:04:49;2.20;;;0.80;;
29414;SDS011;20303;48.302;11.914;2023-04-16T12:14:51;5.57;;;1.10;;
29414;SDS011;20303;48.302;11.914;2023-04-16T12:24:57;1.73;;;1.00;;
29414;SDS011;20303;48.302;11.914;2023-04-16T12:34:58;2.00;;;0.80;;
29414;SDS011;20303;48.302;11.914;2023-04-16T12:44:59;3.08;;;1.08;;
29414;SDS011;20303;48.302;11.914;2023-04-16T12:55:02;2.78;;;0.95;;
29414;SDS011;20303;48.302;11.914;2023-04-16T13:05:03;2.65;;;1.40;;
29414;SDS011;20303;48.302;11.914;2023-04-16T13:15:05;2.80;;;1.15;;
29414;SDS011;20303;48.302;11.914;2023-04-16T13:25:06;5.97;;;1.27;;
29414;SDS011;20303;48.302;11.914;2023-04-16T13:35:09;4.00;;;1.20;;
29414;SDS011;20303;48.302;11.914;2023-04-16T13:45:10;1.60;;;1.08;;
29414;SDS011;20303;48.302;11.914;2023-04-16T13:55:11;0.88;;;0.80;;
29414;SDS011;20303;48.302;11.914;2023-04-16T14:05:13;2.15;;;1.20;;
29414;SDS011;20303;48.302;11.914;2023-04-16T14:15:14;1.23;;;1.00;;
29414;SDS011;20303;48.302;11.914;2023-04-16T14:25:15;2.70;;;0.93;;
29414;SDS011;20303;48.302;11.914;2023-04-16T14:35:16;6.10;;;1.02;;
29414;SDS011;20303;48.302;11.914;2023-04-16T14:45:17;6.97;;;1.50;;
29414;SDS011;20303;48.302;11.914;2023-04-16T15:05:20;6.27;;;1.20;;
29414;SDS011;20303;48.302;11.914;2023-04-16T15:15:21;6.05;;;1.70;;
29414;SDS011;20303;48.302;11.914;2023-04-16T15:25:22;7.20;;;2.47;;
29414;SDS011;20303;48.302;11.914;2023-04-16T15:35:26;4.30;;;2.35;;
29414;SDS011;20303;48.302;11.914;2023-04-16T15:45:27;11.88;;;2.60;;
29414;SDS011;20303;48.302;11.914;2023-04-16T15:55:28;7.13;;;2.53;;
29414;SDS011;20303;48.302;11.914;2023-04-16T16:05:29;10.32;;;2.90;;
29414;SDS011;20303;48.302;11.914;2023-04-16T16:15:30;5.57;;;2.40;;
29414;SDS011;20303;48.302;11.914;2023-04-16T16:25:32;8.48;;;2.70;;
29414;SDS011;20303;48.302;11.914;2023-04-16T16:35:33;6.45;;;2.72;;
29414;SDS011;20303;48.302;11.914;2023-04-16T16:45:34;7.28;;;2.78;;
29414;SDS011;20303;48.302;11.914;2023-04-16T16:55:35;7.03;;;2.40;;
29414;SDS011;20303;48.302;11.914;2023-04-16T17:05:36;7.07;;;2.40;;
29414;SDS011;20303;48.302;11.914;2023-04-16T17:15:37;5.72;;;2.08;;
29414;SDS011;20303;48.302;11.914;2023-04-16T17:25:38;6.70;;;2.25;;
29414;SDS011;20303;48.302;11.914;2023-04-16T17:35:39;6.85;;;2.10;;
29414;SDS011;20303;48.302;11.914;2023-04-16T17:45:40;6.93;;;2.20;;
29414;SDS011;20303;48.302;11.914;2023-04-16T17:55:51;5.53;;;1.92;;
29414;SDS011;20303;48.302;11.914;2023-04-16T18:05:52;6.88;;;2.28;;
29414;SDS011;20303;48.302;11.914;2023-04-16T18:15:53;13.50;;;2.55;;
29414;SDS011;20303;48.302;11.914;2023-04-16T18:25:54;8.63;;;2.35;;
29414;SDS011;20303;48.302;11.914;2023-04-16T18:35:58;12.98;;;2.85;;
29414;SDS011;20303;48.302;11.914;2023-04-16T18:46:00;21.35;;;5.05;;
29414;SDS011;20303;48.302;11.914;2023-04-16T18:56:01;35.03;;;11.18;;
29414;SDS011;20303;48.302;11.914;2023-04-16T19:06:02;32.63;;;11.70;;
29414;SDS011;20303;48.302;11.914;2023-04-16T19:16:04;31.73;;;11.80;;
29414;SDS011;20303;48.302;11.914;2023-04-16T19:26:09;28.92;;;11.55;;
29414;SDS011;20303;48.302;11.914;2023-04-16T19:36:10;25.98;;;10.25;;
29414;SDS011;20303;48.302;11.914;2023-04-16T19:46:11;28.55;;;10.50;;
29414;SDS011;20303;48.302;11.914;2023-04-16T19:56:14;23.80;;;10.10;;
29414;SDS011;20303;48.302;11.914;2023-04-16T20:06:16;22.45;;;9.30;;
29414;SDS011;20303;48.302;11.914;2023-04-16T20:16:17;22.38;;;9.07;;
29414;SDS011;20303;48.302;11.914;2023-04-16T20:26:22;22.75;;;8.57;;
29414;SDS011;20303;48.302;11.914;2023-04-16T20:36:27;20.13;;;8.00;;
29414;SDS011;20303;48.302;11.914;2023-04-16T20:46:28;16.15;;;7.78;;
29414;SDS011;20303;48.302;11.914;2023-04-16T20:56:29;14.70;;;7.50;;
29414;SDS011;20303;48.302;11.914;2023-04-16T21:06:30;13.90;;;7.45;;
29414;SDS011;20303;48.302;11.914;2023-04-16T21:16:32;14.88;;;6.95;;
29414;SDS011;20303;48.302;11.914;2023-04-16T21:26:33;13.98;;;6.68;;
29414;SDS011;20303;48.302;11.914;2023-04-16T21:46:35;11.90;;;6.47;;
29414;SDS011;20303;48.302;11.914;2023-04-16T21:56:36;14.70;;;7.00;;
29414;SDS011;20303;48.302;11.914;2023-04-16T22:06:38;12.57;;;6.60;;
29414;SDS011;20303;48.302;11.914;2023-04-16T22:16:39;10.57;;;6.57;;
29414;SDS011;20303;48.302;11.914;2023-04-16T22:26:40;12.55;;;6.60;;
29414;SDS011;20303;48.302;11.914;2023-04-16T22:36:41;10.93;;;6.15;;
29414;SDS011;20303;48.302;11.914;2023-04-16T22:56:43;12.23;;;6.40;;
29414;SDS011;20303;48.302;11.914;2023-04-16T23:06:47;11.38;;;5.97;;
29414;SDS011;20303;48.302;11.914;2023-04-16T23:26:49;7.37;;;5.10;;
29414;SDS011;20303;48.302;11.914;2023-04-16T23:36:51;8.27;;;4.95;;
29414;SDS011;20303;48.302;11.914;2023-04-16T23:56:53;7.40;;;4.93;;
